Time;durP1;ratioP1;P1;durP2;ratioP2;P2;SDS_P1;SDS_P2;PMS_P1;PMS_P2;Temp;Humidity;BMP_temperature;BMP_pressure;BME280_temperature;BME280_humidity;BME280_pressure;Samples;Min_cycle;Max_cycle;Signal;HPM_P1;HPM_P2
2023/10/03 00:00:24;;;;;;;;;;;;;;;25.04;48.49;100127.91;6124986;23;6771;-74
2023/10/03 00:02:55;;;;;;;;;;;;;;;25.10;48.31;100123.44;6126028;23;6817;-72
2023/10/03 00:05:28;;;;;;;;;;;;;;;25.18;48.57;100117.19;6141720;23;7144;-73
2023/10/03 00:07:56;;;;;;;;;;;;;;;25.26;48.23;100107.44;6180243;23;6966;-73
2023/10/03 00:10:23;;;;;;;;;;;;;;;25.32;47.73;100104.72;6181665;23;6926;-73
2023/10/03 00:12:51;;;;;;;;;;;;;;;25.37;47.56;100102.88;6129134;23;7010;-72
2023/10/03 00:15:27;;;;;;;;;;;;;;;25.42;47.36;100094.91;6154783;23;6970;-72
2023/10/03 00:17:54;;;;;;;;;;;;;;;25.47;47.31;100098.34;6154866;23;7130;-72
2023/10/03 00:20:22;;;;;;;;;;;;;;;25.53;47.28;100084.25;6156712;23;6838;-72
2023/10/03 00:22:50;;;;;;;;;;;;;;;25.58;46.90;100082.41;6154665;23;6970;-74
2023/10/03 00:25:18;;;;;;;;;;;;;;;25.63;46.66;100080.56;6182551;23;7373;-74
2023/10/03 00:27:51;;;;;;;;;;;;;;;25.71;46.40;100071.69;6155009;23;7010;-72
2023/10/03 00:30:21;;;;;;;;;;;;;;;25.77;46.24;100071.53;6151807;23;7222;-73
2023/10/03 00:32:53;;;;;;;;;;;;;;;25.85;46.07;100068.78;6155334;23;7148;-71
2023/10/03 00:35:22;;;;;;;;;;;;;;;25.89;45.88;100066.06;6182133;23;6767;-73
2023/10/03 00:37:52;;;;;;;;;;;;;;;25.96;45.78;100058.03;6179330;23;7119;-72
2023/10/03 00:42:59;;;;;;;;;;;;;;;26.04;45.45;100048.25;6155038;23;6827;-73
2023/10/03 00:45:26;;;;;;;;;;;;;;;26.09;45.16;100045.50;6155008;23;6838;-72
2023/10/03 00:47:58;;;;;;;;;;;;;;;26.14;44.98;100047.13;6178500;23;6909;-73
2023/10/03 00:50:34;;;;;;;;;;;;;;;26.20;44.95;100051.41;6146821;23;7250;-74
2023/10/03 00:53:08;;;;;;;;;;;;;;;26.25;44.65;100040.81;6147095;23;7213;-74
2023/10/03 00:55:38;;;;;;;;;;;;;;;26.30;44.66;100033.69;6175672;23;6794;-74
2023/10/03 01:00:43;;;;;;;;;;;;;;;26.38;44.48;100021.25;6156796;23;6775;-74
2023/10/03 01:03:32;;;;;;;;;;;;;;;26.42;44.23;100016.78;6148127;23;6771;-74
2023/10/03 01:06:05;;;;;;;;;;;;;;;26.45;43.96;100012.28;6126003;23;7194;-74
2023/10/03 01:08:39;;;;;;;;;;;;;;;26.48;44.02;100012.25;6139046;23;7822;-74
2023/10/03 01:11:07;;;;;;;;;;;;;;;26.52;43.74;100006.91;6118331;23;7140;-74
2023/10/03 01:13:34;;;;;;;;;;;;;;;26.55;43.49;100012.06;6116074;23;6771;-74
2023/10/03 01:16:03;;;;;;;;;;;;;;;26.58;43.70;99996.25;6117936;23;7854;-74
2023/10/03 01:18:31;;;;;;;;;;;;;;;26.60;43.29;100003.16;6120070;23;6962;-74
2023/10/03 01:21:05;;;;;;;;;;;;;;;26.62;43.30;99993.50;6144046;23;6779;-74
2023/10/03 01:23:39;;;;;;;;;;;;;;;26.63;43.18;99996.97;6120852;23;7010;-74
2023/10/03 01:26:07;;;;;;;;;;;;;;;26.64;43.27;99977.69;6091201;23;6959;-74
2023/10/03 01:28:34;;;;;;;;;;;;;;;26.62;43.26;99969.84;6116895;23;6781;-74
2023/10/03 01:31:00;;;;;;;;;;;;;;;26.62;43.05;99967.22;6109053;23;7014;-74
2023/10/03 01:33:26;;;;;;;;;;;;;;;26.63;42.82;99968.06;6093004;23;6953;-74
2023/10/03 01:35:55;;;;;;;;;;;;;;;26.61;43.23;99957.63;6089983;23;7024;-74
2023/10/03 01:38:27;;;;;;;;;;;;;;;26.61;42.96;99951.50;6087489;23;6835;-74
2023/10/03 01:40:54;;;;;;;;;;;;;;;26.58;42.81;99949.81;6091809;23;7558;-74
2023/10/03 01:43:20;;;;;;;;;;;;;;;26.58;42.81;99947.19;6091412;23;6775;-74
2023/10/03 01:45:46;;;;;;;;;;;;;;;26.58;42.75;99948.97;6117456;23;6826;-74
2023/10/03 01:48:12;;;;;;;;;;;;;;;26.55;42.41;99949.88;6091438;23;6945;-74
2023/10/03 01:50:38;;;;;;;;;;;;;;;26.54;42.77;99952.53;6092225;23;6771;-73
2023/10/03 01:53:06;;;;;;;;;;;;;;;26.51;42.53;99947.38;6066828;23;7030;-74
2023/10/03 01:55:31;;;;;;;;;;;;;;;26.51;42.50;99942.13;6116046;23;6770;-74
2023/10/03 01:57:58;;;;;;;;;;;;;;;26.51;42.55;99936.88;6090921;23;6894;-72
2023/10/03 02:00:28;;;;;;;;;;;;;;;26.51;42.58;99931.63;6115083;23;6778;-75
2023/10/03 02:02:56;;;;;;;;;;;;;;;26.50;42.72;99930.75;6089248;23;6967;-75
2023/10/03 02:05:25;;;;;;;;;;;;;;;26.47;42.45;99926.44;6090251;23;7047;-75
2023/10/03 02:07:52;;;;;;;;;;;;;;;26.43;42.43;99927.41;6090313;23;6771;-74
2023/10/03 02:10:19;;;;;;;;;;;;;;;26.39;42.45;99920.53;6089032;23;6802;-74
2023/10/03 02:12:51;;;;;;;;;;;;;;;26.36;42.60;99917.09;6090186;23;7058;-74
2023/10/03 02:15:20;;;;;;;;;;;;;;;26.33;42.42;99907.53;6090929;23;6950;-74
2023/10/03 02:17:49;;;;;;;;;;;;;;;26.33;42.40;99915.41;6113983;23;6783;-75
2023/10/03 02:20:20;;;;;;;;;;;;;;;26.33;42.89;99907.53;6090264;23;6775;-74
2023/10/03 02:22:53;;;;;;;;;;;;;;;26.32;42.42;99901.44;6089120;23;7009;-74
2023/10/03 02:25:28;;;;;;;;;;;;;;;26.32;42.55;99901.44;6118432;23;6997;-75
2023/10/03 02:27:56;;;;;;;;;;;;;;;26.33;42.50;99902.28;6115961;23;6808;-75
2023/10/03 02:30:27;;;;;;;;;;;;;;;26.33;42.48;99894.41;6092056;23;6783;-75
2023/10/03 02:32:58;;;;;;;;;;;;;;;26.33;42.61;99886.53;6114228;23;6953;-75
2023/10/03 02:35:26;;;;;;;;;;;;;;;26.33;42.53;99904.91;6116620;23;6954;-74
2023/10/03 02:37:58;;;;;;;;;;;;;;;26.34;42.29;99904.00;6112101;23;6767;-75
2023/10/03 02:40:30;;;;;;;;;;;;;;;26.37;42.47;99898.69;6115513;23;6986;-75
2023/10/03 02:42:55;;;;;;;;;;;;;;;26.39;42.18;99899.50;6115163;23;6779;-75
2023/10/03 02:45:23;;;;;;;;;;;;;;;26.44;42.02;99894.97;6115553;23;6980;-75
2023/10/03 02:47:55;;;;;;;;;;;;;;;26.50;41.93;99896.59;6114624;23;7437;-75
2023/10/03 02:50:26;;;;;;;;;;;;;;;26.54;41.97;99889.50;6115234;23;6775;-75
2023/10/03 02:52:56;;;;;;;;;;;;;;;26.56;41.63;99882.44;6116083;23;7041;-75
2023/10/03 02:55:22;;;;;;;;;;;;;;;26.58;41.69;99875.38;6116276;23;7012;-75
2023/10/03 02:57:49;;;;;;;;;;;;;;;26.59;41.82;99879.72;6090852;23;6978;-75
2023/10/03 03:00:15;;;;;;;;;;;;;;;26.59;41.98;99871.84;6113305;23;6779;-75
2023/10/03 03:02:47;;;;;;;;;;;;;;;26.58;41.56;99864.88;6115251;23;6787;-75
2023/10/03 03:05:18;;;;;;;;;;;;;;;26.60;41.80;99873.56;6112118;23;7056;-75
2023/10/03 03:07:46;;;;;;;;;;;;;;;26.61;41.45;99880.53;6117171;23;7235;-75
2023/10/03 03:10:17;;;;;;;;;;;;;;;26.61;41.63;99880.53;6125209;23;6997;-73
2023/10/03 03:12:47;;;;;;;;;;;;;;;26.64;41.66;99869.09;6147801;23;6942;-73
2023/10/03 03:15:23;;;;;;;;;;;;;;;26.64;41.78;99875.19;6150824;23;6799;-73
2023/10/03 03:17:50;;;;;;;;;;;;;;;26.66;41.87;99880.41;6150359;23;6943;-73
2023/10/03 03:20:25;;;;;;;;;;;;;;;26.67;41.68;99890.91;6150932;23;6985;-72
2023/10/03 03:22:52;;;;;;;;;;;;;;;26.67;41.70;99892.66;6128553;23;6998;-72
2023/10/03 03:25:35;;;;;;;;;;;;;;;26.66;41.92;99893.56;6127821;23;6971;-72
2023/10/03 03:28:01;;;;;;;;;;;;;;;26.65;41.79;99884.81;6150304;23;6783;-74
2023/10/03 03:32:53;;;;;;;;;;;;;;;26.63;41.98;99897.13;6152120;23;6743;-74
2023/10/03 03:35:22;;;;;;;;;;;;;;;26.64;42.23;99898.00;6149228;23;6778;-73
2023/10/03 03:37:48;;;;;;;;;;;;;;;26.61;42.21;99912.06;6146841;23;6990;-72
2023/10/03 03:40:29;;;;;;;;;;;;;;;26.58;42.12;99904.28;6148805;23;7044;-72
2023/10/03 03:42:57;;;;;;;;;;;;;;;26.55;42.17;99905.22;6149121;23;6779;-73
2023/10/03 03:45:23;;;;;;;;;;;;;;;26.51;42.52;99907.97;6150631;23;6790;-72
2023/10/03 03:47:51;;;;;;;;;;;;;;;26.50;42.53;99929.91;6150583;23;6758;-73
2023/10/03 03:50:17;;;;;;;;;;;;;;;26.46;42.45;99923.84;6148671;23;7128;-72
2023/10/03 03:52:46;;;;;;;;;;;;;;;26.43;42.67;99916.06;6147918;23;6822;-73
2023/10/03 03:55:12;;;;;;;;;;;;;;;26.41;42.69;99926.59;6147806;23;6774;-74
2023/10/03 03:57:38;;;;;;;;;;;;;;;26.39;42.98;99933.66;6124986;23;6972;-74
2023/10/03 04:00:20;;;;;;;;;;;;;;;26.36;43.13;99938.13;6148130;23;7117;-72
2023/10/03 04:02:48;;;;;;;;;;;;;;;26.31;43.12;99925.09;6102614;23;11511;-71
2023/10/03 04:05:18;;;;;;;;;;;;;;;26.24;43.28;99934.91;6120342;23;7129;-73
2023/10/03 04:07:44;;;;;;;;;;;;;;;26.21;43.24;99937.59;6121060;23;6962;-72
2023/10/03 04:10:12;;;;;;;;;;;;;;;26.17;43.70;99942.03;6144018;23;7224;-74
2023/10/03 04:12:41;;;;;;;;;;;;;;;26.16;43.49;99942.06;6121177;23;6767;-72
2023/10/03 04:15:15;;;;;;;;;;;;;;;26.12;43.57;99941.28;6095781;23;6821;-73
2023/10/03 04:17:51;;;;;;;;;;;;;;;26.09;43.71;99940.47;6119899;23;6779;-73
2023/10/03 04:22:50;;;;;;;;;;;;;;;25.98;43.99;99930.22;6129696;23;6771;-71
2023/10/03 04:25:20;;;;;;;;;;;;;;;25.92;44.33;99945.22;6119806;23;6842;-73
2023/10/03 04:27:53;;;;;;;;;;;;;;;25.82;44.16;99956.84;6121768;23;7077;-72
2023/10/03 04:30:21;;;;;;;;;;;;;;;25.75;44.54;99963.13;6119222;23;6838;-73
2023/10/03 04:32:47;;;;;;;;;;;;;;;25.68;44.59;99961.53;6118919;23;7025;-73
2023/10/03 04:35:18;;;;;;;;;;;;;;;25.62;44.52;99967.75;6120314;23;8020;-74
2023/10/03 04:37:46;;;;;;;;;;;;;;;25.56;44.93;99968.75;6143272;23;6779;-73
2023/10/03 04:40:21;;;;;;;;;;;;;;;25.50;44.93;99968.91;6121243;23;6834;-73
2023/10/03 04:42:50;;;;;;;;;;;;;;;25.43;45.20;99962.88;6121041;23;6786;-73
2023/10/03 04:45:18;;;;;;;;;;;;;;;25.37;45.13;99966.47;6118757;23;6770;-71
2023/10/03 04:47:45;;;;;;;;;;;;;;;25.33;45.55;99975.31;6169229;23;7051;-73
2023/10/03 04:50:11;;;;;;;;;;;;;;;25.31;45.78;99971.88;6116838;23;6966;-73
2023/10/03 04:52:38;;;;;;;;;;;;;;;25.28;45.70;99968.44;6089652;23;7176;-73
2023/10/03 04:55:04;;;;;;;;;;;;;;;25.25;45.92;99972.00;6117763;23;6831;-71
2023/10/03 04:57:30;;;;;;;;;;;;;;;25.22;45.83;99978.16;6117689;23;7107;-72
2023/10/03 04:59:59;;;;;;;;;;;;;;;25.21;46.18;99975.56;6120565;23;6945;-72
2023/10/03 05:02:28;;;;;;;;;;;;;;;25.19;46.29;99969.47;6116701;23;6774;-73
2023/10/03 05:04:55;;;;;;;;;;;;;;;25.18;46.27;99978.25;6123202;23;6775;-73
2023/10/03 05:07:23;;;;;;;;;;;;;;;25.18;46.41;99978.25;6089535;23;6779;-72
2023/10/03 05:09:51;;;;;;;;;;;;;;;25.20;46.79;99979.06;6095690;23;6978;-72
2023/10/03 05:12:18;;;;;;;;;;;;;;;25.20;46.71;99987.81;6095843;23;6770;-72
2023/10/03 05:14:48;;;;;;;;;;;;;;;25.19;46.55;99991.31;6099776;23;6922;-72
2023/10/03 05:17:15;;;;;;;;;;;;;;;25.18;46.86;99993.97;6091115;23;6962;-74
2023/10/03 05:19:42;;;;;;;;;;;;;;;25.12;46.88;100001.97;6119163;23;7201;-73
2023/10/03 05:22:08;;;;;;;;;;;;;;;25.05;46.73;99994.22;6071126;23;7142;-72
2023/10/03 05:24:36;;;;;;;;;;;;;;;25.01;47.12;99987.28;6096427;23;6783;-73
2023/10/03 05:27:04;;;;;;;;;;;;;;;24.96;47.10;99990.00;6096062;23;6782;-74
2023/10/03 05:29:30;;;;;;;;;;;;;;;24.93;47.35;99995.28;6094038;23;6790;-74
2023/10/03 05:31:55;;;;;;;;;;;;;;;24.89;47.31;100018.97;6112167;23;7128;-74
2023/10/03 05:34:22;;;;;;;;;;;;;;;24.86;47.85;100016.41;6148239;23;7184;-74
2023/10/03 05:36:49;;;;;;;;;;;;;;;24.83;47.52;100012.06;6120523;23;6779;-74
2023/10/03 05:39:15;;;;;;;;;;;;;;;24.78;47.98;100012.16;6118297;23;6771;-74
2023/10/03 05:41:42;;;;;;;;;;;;;;;24.76;47.84;100037.50;6094623;23;7274;-74
2023/10/03 05:44:12;;;;;;;;;;;;;;;24.75;48.00;100041.00;6094914;23;6974;-74
2023/10/03 05:46:42;;;;;;;;;;;;;;;24.74;48.78;100026.19;6120251;23;7014;-74
2023/10/03 05:49:09;;;;;;;;;;;;;;;24.76;48.54;100047.09;6121692;23;6887;-74
2023/10/03 05:51:35;;;;;;;;;;;;;;;24.78;48.54;100048.84;6118508;23;6843;-73
2023/10/03 05:54:05;;;;;;;;;;;;;;;24.79;48.40;100060.19;6118255;23;7187;-73
2023/10/03 05:56:31;;;;;;;;;;;;;;;24.79;48.96;100068.91;6118720;23;7167;-74
2023/10/03 05:59:00;;;;;;;;;;;;;;;24.80;48.78;100062.78;6119939;23;6965;-74
2023/10/03 06:01:25;;;;;;;;;;;;;;;24.80;48.79;100060.16;6121937;23;6859;-74
2023/10/03 06:03:51;;;;;;;;;;;;;;;24.79;49.09;100057.56;6121589;23;7157;-73
2023/10/03 06:06:17;;;;;;;;;;;;;;;24.76;49.30;100053.22;6116747;23;7344;-74
2023/10/03 06:08:45;;;;;;;;;;;;;;;24.74;48.76;100052.38;6120808;23;7045;-74
2023/10/03 06:11:10;;;;;;;;;;;;;;;24.72;49.10;100056.75;6121921;23;6782;-73
2023/10/03 06:13:36;;;;;;;;;;;;;;;24.68;49.29;100063.81;6120709;23;6967;-74
2023/10/03 06:16:06;;;;;;;;;;;;;;;24.66;49.08;100097.03;6121811;23;7059;-74
2023/10/03 06:18:31;;;;;;;;;;;;;;;24.64;49.34;100082.22;6145348;23;6854;-73
2023/10/03 06:20:57;;;;;;;;;;;;;;;24.60;49.42;100096.25;6121447;23;6788;-73
2023/10/03 06:23:24;;;;;;;;;;;;;;;24.57;49.65;100085.84;6120585;23;7160;-73
2023/10/03 06:25:49;;;;;;;;;;;;;;;24.55;49.54;100112.91;6120079;23;6786;-73
2023/10/03 06:28:15;;;;;;;;;;;;;;;24.55;49.86;100099.81;6121252;23;6774;-74
2023/10/03 06:30:40;;;;;;;;;;;;;;;24.53;50.43;100104.22;6121709;23;7009;-75
2023/10/03 06:33:07;;;;;;;;;;;;;;;24.51;50.34;100120.84;6144422;23;6819;-74
2023/10/03 06:35:32;;;;;;;;;;;;;;;24.46;50.29;100135.75;6119966;23;7060;-74
2023/10/03 06:37:58;;;;;;;;;;;;;;;24.43;50.16;100120.94;6143946;23;6846;-74
2023/10/03 06:40:24;;;;;;;;;;;;;;;24.39;50.78;100127.09;6120828;23;6927;-75
2023/10/03 06:42:49;;;;;;;;;;;;;;;24.35;50.13;100126.28;6145766;23;6963;-75
2023/10/03 06:45:15;;;;;;;;;;;;;;;24.31;50.68;100131.56;6120334;23;6762;-74
2023/10/03 06:47:40;;;;;;;;;;;;;;;24.26;50.74;100134.25;6120776;23;6762;-75
2023/10/03 06:50:07;;;;;;;;;;;;;;;24.22;50.40;100128.19;6121508;23;6767;-75
2023/10/03 06:52:35;;;;;;;;;;;;;;;24.21;50.54;100134.31;6145736;23;6906;-75
2023/10/03 06:55:03;;;;;;;;;;;;;;;24.17;50.78;100130.00;6131668;23;6986;-74
2023/10/03 06:57:29;;;;;;;;;;;;;;;24.11;50.73;100133.59;6134424;23;6855;-75
2023/10/03 06:59:56;;;;;;;;;;;;;;;24.07;50.78;100120.56;6119937;23;7042;-75
2023/10/03 07:02:21;;;;;;;;;;;;;;;24.05;51.37;100127.56;6120588;23;6955;-75
2023/10/03 07:04:47;;;;;;;;;;;;;;;24.02;50.93;100128.44;6123270;23;7020;-75
2023/10/03 07:07:13;;;;;;;;;;;;;;;24.01;50.88;100113.59;6129918;23;6751;-75
2023/10/03 07:09:39;;;;;;;;;;;;;;;24.00;50.75;100123.19;6145561;23;6759;-75
2023/10/03 07:12:08;;;;;;;;;;;;;;;24.02;51.23;100156.34;6145914;23;7339;-75
2023/10/03 07:14:37;;;;;;;;;;;;;;;24.05;51.37;100136.25;6121083;23;6922;-75
2023/10/03 07:17:04;;;;;;;;;;;;;;;24.09;51.04;100137.94;6119692;23;6775;-75
2023/10/03 07:19:30;;;;;;;;;;;;;;;24.14;51.10;100153.59;6118549;23;6771;-75
2023/10/03 07:21:57;;;;;;;;;;;;;;;24.15;50.92;100142.28;6120208;23;6779;-75
2023/10/03 07:24:28;;;;;;;;;;;;;;;24.15;51.00;100139.66;6138651;23;7238;-74
2023/10/03 07:26:54;;;;;;;;;;;;;;;24.18;51.24;100157.94;6120422;23;6929;-75
2023/10/03 07:29:20;;;;;;;;;;;;;;;24.18;50.91;100134.38;6118855;23;6830;-75
2023/10/03 07:31:46;;;;;;;;;;;;;;;24.23;50.83;100139.53;6139579;23;7053;-75
2023/10/03 07:34:17;;;;;;;;;;;;;;;24.25;51.59;100128.16;6119742;23;6947;-75
2023/10/03 07:36:43;;;;;;;;;;;;;;;24.32;51.15;100112.34;6121691;23;6775;-75
2023/10/03 07:39:09;;;;;;;;;;;;;;;24.36;51.12;100127.16;6094921;23;6969;-75
2023/10/03 07:41:35;;;;;;;;;;;;;;;24.39;50.70;100134.97;6145866;23;6766;-75
2023/10/03 07:44:01;;;;;;;;;;;;;;;24.40;51.04;100145.44;6120157;23;6976;-75
2023/10/03 07:46:27;;;;;;;;;;;;;;;24.44;51.06;100138.41;6146370;23;6775;-75
2023/10/03 07:48:53;;;;;;;;;;;;;;;24.52;51.33;100147.00;6120267;23;6913;-74
2023/10/03 07:51:26;;;;;;;;;;;;;;;24.65;51.45;100149.47;6118710;23;6775;-74
2023/10/03 07:53:52;;;;;;;;;;;;;;;24.78;50.55;100158.03;6120352;23;7284;-73
2023/10/03 07:56:26;;;;;;;;;;;;;;;24.87;50.93;100163.16;6119124;23;6998;-74
2023/10/03 07:58:56;;;;;;;;;;;;;;;24.91;50.42;100167.44;6144850;23;7869;-73
2023/10/03 08:01:24;;;;;;;;;;;;;;;24.95;50.54;100173.50;6120803;23;6778;-73
2023/10/03 08:03:54;;;;;;;;;;;;;;;24.97;50.02;100171.72;6120234;23;6779;-73
2023/10/03 08:06:27;;;;;;;;;;;;;;;24.98;50.20;100175.22;6146710;23;6982;-74
2023/10/03 08:08:59;;;;;;;;;;;;;;;24.99;49.99;100169.94;6150261;23;7008;-74
2023/10/03 08:11:31;;;;;;;;;;;;;;;24.95;50.58;100176.13;6152221;23;7319;-74
2023/10/03 08:14:14;;;;;;;;;;;;;;;24.85;50.44;100198.97;6149928;23;6966;-74
2023/10/03 08:16:40;;;;;;;;;;;;;;;24.76;50.57;100213.06;6153801;23;7154;-74
2023/10/03 08:19:08;;;;;;;;;;;;;;;24.73;50.60;100226.22;6176747;23;6971;-74
2023/10/03 08:21:35;;;;;;;;;;;;;;;24.67;50.79;100211.44;6151771;23;6783;-74
2023/10/03 08:24:09;;;;;;;;;;;;;;;24.65;50.96;100217.56;6175693;23;6787;-74
2023/10/03 08:26:37;;;;;;;;;;;;;;;24.60;51.19;100222.00;6151672;23;7144;-74
2023/10/03 08:29:05;;;;;;;;;;;;;;;24.55;51.15;100222.94;6150362;23;6950;-74
2023/10/03 08:31:32;;;;;;;;;;;;;;;24.54;51.42;100215.97;6143700;23;7436;-74
2023/10/03 08:33:58;;;;;;;;;;;;;;;24.53;51.39;100215.97;6147504;23;6783;-73
2023/10/03 08:36:30;;;;;;;;;;;;;;;24.57;51.43;100222.91;6145474;23;7322;-74
2023/10/03 08:39:04;;;;;;;;;;;;;;;24.61;51.18;100226.34;6146122;23;6782;-74
2023/10/03 08:42:14;;;;;;;;;;;;;;;24.64;51.07;100229.78;6121825;23;6869;-74
2023/10/03 08:44:55;;;;;;;;;;;;;;;24.63;51.18;100237.69;6143117;23;6783;-74
2023/10/03 08:47:31;;;;;;;;;;;;;;;24.45;51.03;100218.69;6147773;23;6775;-74
2023/10/03 08:50:10;;;;;;;;;;;;;;;24.20;51.45;100220.75;6146258;23;7059;-74
2023/10/03 08:52:48;;;;;;;;;;;;;;;23.91;51.98;100233.22;6146564;23;6775;-74
2023/10/03 08:55:19;;;;;;;;;;;;;;;23.70;52.70;100237.78;6146739;23;7252;-74
2023/10/03 08:57:49;;;;;;;;;;;;;;;23.60;53.42;100236.13;6145753;23;6778;-74
2023/10/03 09:00:16;;;;;;;;;;;;;;;23.54;54.28;100228.31;6149225;23;6937;-72
2023/10/03 09:02:49;;;;;;;;;;;;;;;23.61;54.74;100226.50;6152390;23;6945;-72
2023/10/03 09:05:20;;;;;;;;;;;;;;;23.75;55.08;100242.97;6151764;23;7471;-72
2023/10/03 09:07:51;;;;;;;;;;;;;;;23.95;54.49;100244.53;6126795;23;7124;-73
2023/10/03 09:10:22;;;;;;;;;;;;;;;24.11;54.17;100245.25;6150762;23;6770;-74
2023/10/03 09:12:56;;;;;;;;;;;;;;;24.23;54.58;100255.59;6151036;23;7118;-71
2023/10/03 09:15:22;;;;;;;;;;;;;;;24.31;53.84;100262.50;6128229;23;7379;-73
2023/10/03 09:17:52;;;;;;;;;;;;;;;24.34;53.99;100263.34;6152671;23;6834;-73
2023/10/03 09:20:24;;;;;;;;;;;;;;;24.37;53.89;100270.31;6150922;23;7292;-72
2023/10/03 09:23:05;;;;;;;;;;;;;;;24.37;53.63;100265.91;6146579;23;7209;-73
2023/10/03 09:25:32;;;;;;;;;;;;;;;24.40;53.48;100265.03;6149512;23;6958;-72
2023/10/03 09:28:05;;;;;;;;;;;;;;;24.46;53.63;100262.34;6152393;23;6767;-72
2023/10/03 09:30:38;;;;;;;;;;;;;;;24.58;53.74;100277.06;6150111;23;6775;-73
2023/10/03 09:33:06;;;;;;;;;;;;;;;24.69;53.84;100269.91;6150704;23;7227;-73
2023/10/03 09:35:34;;;;;;;;;;;;;;;24.84;53.64;100275.00;6152292;23;7369;-74
2023/10/03 09:38:05;;;;;;;;;;;;;;;24.98;53.14;100274.84;6123982;23;6954;-74
2023/10/03 09:40:50;;;;;;;;;;;;;;;25.07;52.75;100280.78;6149772;23;6787;-73
2023/10/03 09:43:19;;;;;;;;;;;;;;;25.15;52.56;100274.59;6150671;23;7268;-72
2023/10/03 09:45:47;;;;;;;;;;;;;;;25.21;52.31;100266.63;6152110;23;6991;-73
2023/10/03 09:48:14;;;;;;;;;;;;;;;25.26;51.86;100275.28;6152209;23;7296;-73
2023/10/03 09:50:53;;;;;;;;;;;;;;;25.28;51.72;100267.41;6149088;23;6775;-72
2023/10/03 09:53:27;;;;;;;;;;;;;;;25.23;51.60;100264.84;6129354;23;7238;-74
2023/10/03 09:55:56;;;;;;;;;;;;;;;25.17;51.61;100270.16;6154338;23;7295;-71
2023/10/03 09:58:31;;;;;;;;;;;;;;;25.07;51.62;100267.69;6144103;23;7170;-75
2023/10/03 10:00:58;;;;;;;;;;;;;;;24.97;51.23;100260.84;6121803;23;6960;-75
2023/10/03 10:03:36;;;;;;;;;;;;;;;24.92;51.71;100273.16;6126991;23;6767;-72
2023/10/03 10:06:37;;;;;;;;;;;;;;;24.86;51.23;100274.09;6129261;23;6854;-73
2023/10/03 10:09:23;;;;;;;;;;;;;;;24.77;51.78;100282.91;6151745;23;7065;-74
2023/10/03 10:12:11;;;;;;;;;;;;;;;24.70;51.38;100291.72;6126452;23;7212;-74
2023/10/03 10:15:02;;;;;;;;;;;;;;;24.58;52.06;100300.63;6148523;23;6775;-77
2023/10/03 10:17:49;;;;;;;;;;;;;;;24.48;52.10;100327.78;6177659;23;6794;-74
2023/10/03 10:22:58;;;;;;;;;;;;;;;23.93;50.92;100338.75;6119289;23;7002;-76
2023/10/03 10:25:28;;;;;;;;;;;;;;;23.33;50.98;100340.03;6119220;23;7265;-77
2023/10/03 10:28:08;;;;;;;;;;;;;;;22.74;52.49;100362.06;6118112;23;6767;-76
2023/10/03 10:30:39;;;;;;;;;;;;;;;22.37;53.49;100359.50;6109163;23;6849;-78
2023/10/03 10:33:23;;;;;;;;;;;;;;;22.07;54.24;100369.09;6063827;23;7112;-78
2023/10/03 10:35:55;;;;;;;;;;;;;;;21.82;54.69;100370.81;6088632;23;7200;-78
2023/10/03 10:38:31;;;;;;;;;;;;;;;21.62;55.26;100366.41;6065128;23;6790;-76
2023/10/03 10:41:17;;;;;;;;;;;;;;;21.54;56.29;100358.56;6062744;23;6964;-75
2023/10/03 10:44:14;;;;;;;;;;;;;;;21.57;56.59;100375.97;6089325;23;6955;-77
2023/10/03 10:46:47;;;;;;;;;;;;;;;21.66;57.12;100365.56;6086748;23;7147;-76
2023/10/03 10:49:31;;;;;;;;;;;;;;;21.80;56.93;100370.81;6065212;23;6775;-76
2023/10/03 10:52:01;;;;;;;;;;;;;;;21.94;57.19;100369.94;6065145;23;6978;-77
2023/10/03 10:54:28;;;;;;;;;;;;;;;22.04;57.20;100376.91;6050125;23;7371;-76
2023/10/03 10:57:11;;;;;;;;;;;;;;;22.17;57.24;100375.16;6040422;23;7003;-76
2023/10/03 10:59:40;;;;;;;;;;;;;;;22.28;57.73;100378.63;6088651;23;6783;-76
2023/10/03 11:02:21;;;;;;;;;;;;;;;22.41;57.27;100373.44;6038839;23;6995;-77
2023/10/03 11:04:54;;;;;;;;;;;;;;;22.52;57.49;100373.41;6061031;23;6812;-75
2023/10/03 11:07:22;;;;;;;;;;;;;;;22.59;57.44;100367.31;6089073;23;6770;-75
2023/10/03 11:46:50;;;;;;;;;;;;;;;22.30;56.38;100467.41;6091758;23;7090;-86
2023/10/03 11:49:16;;;;;;;;;;;;;;;22.23;56.36;100492.63;6066152;23;8395;-85
2023/10/03 11:51:45;;;;;;;;;;;;;;;22.13;56.51;100515.22;6066583;23;7302;-86
2023/10/03 11:54:14;;;;;;;;;;;;;;;22.05;55.78;100533.50;6066702;23;7449;-85
2023/10/03 11:56:47;;;;;;;;;;;;;;;21.88;55.90;100520.41;6065762;23;7132;-86
2023/10/03 11:59:15;;;;;;;;;;;;;;;21.75;55.74;100535.13;6043285;23;7073;-86
2023/10/03 12:01:50;;;;;;;;;;;;;;;21.65;56.08;100544.63;6061434;23;7306;-88
2023/10/03 12:04:17;;;;;;;;;;;;;;;21.58;56.10;100558.47;6039502;23;6947;-87
2023/10/03 12:06:43;;;;;;;;;;;;;;;21.49;56.37;100569.75;6039499;23;7123;-87
2023/10/03 12:09:09;;;;;;;;;;;;;;;21.43;56.60;100568.84;6039423;23;8395;-84
2023/10/03 12:11:40;;;;;;;;;;;;;;;21.42;57.04;100573.16;6037771;23;6969;-84
2023/10/03 12:14:09;;;;;;;;;;;;;;;21.46;57.49;100572.34;6037374;23;8604;-84
2023/10/03 12:16:39;;;;;;;;;;;;;;;21.49;57.46;100582.78;6036161;23;8873;-84
2023/10/03 12:19:07;;;;;;;;;;;;;;;21.53;57.20;100573.25;6062054;23;7006;-84
2023/10/03 12:21:34;;;;;;;;;;;;;;;21.59;57.34;100581.13;6038312;23;7139;-84
2023/10/03 12:24:02;;;;;;;;;;;;;;;21.69;57.16;100573.38;6062188;23;7205;-84
2023/10/03 12:26:28;;;;;;;;;;;;;;;21.89;57.82;100573.44;6035939;23;8363;-84
2023/10/03 12:28:56;;;;;;;;;;;;;;;22.12;57.56;100581.34;6061058;23;6918;-84
2023/10/03 12:31:25;;;;;;;;;;;;;;;22.42;56.94;100586.66;6052114;23;6910;-84
2023/10/03 12:33:52;;;;;;;;;;;;;;;22.61;56.73;100578.00;6037931;23;8386;-84
2023/10/03 12:36:18;;;;;;;;;;;;;;;22.89;56.29;100587.59;6036801;23;8397;-84
2023/10/03 12:38:44;;;;;;;;;;;;;;;23.14;55.72;100577.97;6068836;23;8293;-75
2023/10/03 12:41:09;;;;;;;;;;;;;;;23.34;55.37;100582.34;6088703;23;6775;-75
2023/10/03 12:43:37;;;;;;;;;;;;;;;23.43;54.20;100579.72;6111798;23;6766;-75
2023/10/03 12:46:04;;;;;;;;;;;;;;;23.49;53.91;100589.28;6086531;23;6838;-75
2023/10/03 12:48:33;;;;;;;;;;;;;;;23.52;53.36;100578.81;6039284;23;8045;-75
2023/10/03 12:50:58;;;;;;;;;;;;;;;23.55;53.09;100591.00;6086342;23;6787;-75
2023/10/03 12:53:24;;;;;;;;;;;;;;;23.64;53.10;100584.88;6112163;23;6762;-75
2023/10/03 12:55:50;;;;;;;;;;;;;;;23.80;52.89;100580.47;6111180;23;7352;-75
2023/10/03 12:58:19;;;;;;;;;;;;;;;23.97;52.92;100603.94;6112069;23;6952;-75
2023/10/03 13:00:47;;;;;;;;;;;;;;;24.10;52.27;100589.09;6091792;23;6961;-75
2023/10/03 13:03:12;;;;;;;;;;;;;;;24.25;51.38;100589.00;6068590;23;7232;-75
2023/10/03 13:05:38;;;;;;;;;;;;;;;24.41;51.06;100600.25;6090624;23;7163;-75
2023/10/03 13:08:04;;;;;;;;;;;;;;;24.45;50.18;100608.09;6115570;23;6775;-75
2023/10/03 13:10:30;;;;;;;;;;;;;;;24.36;49.73;100609.03;6091348;23;6834;-75
2023/10/03 13:12:56;;;;;;;;;;;;;;;24.24;49.79;100628.28;6090658;23;6762;-74
2023/10/03 13:15:22;;;;;;;;;;;;;;;24.05;49.16;100638.00;6092761;23;7061;-74
2023/10/03 13:17:54;;;;;;;;;;;;;;;23.87;49.63;100642.38;6117561;23;6792;-74
2023/10/03 13:20:23;;;;;;;;;;;;;;;23.70;49.26;100643.28;6070827;23;8542;-74
2023/10/03 13:22:50;;;;;;;;;;;;;;;23.56;48.86;100642.44;6094755;23;6962;-74
2023/10/03 13:25:23;;;;;;;;;;;;;;;23.40;49.14;100655.56;6094777;23;6779;-74
2023/10/03 13:27:53;;;;;;;;;;;;;;;23.22;49.05;100661.63;6091865;23;6972;-74
2023/10/03 13:30:24;;;;;;;;;;;;;;;23.07;49.11;100661.66;6093030;23;6778;-74
2023/10/03 13:32:52;;;;;;;;;;;;;;;22.93;49.14;100669.47;6118185;23;6908;-74
2023/10/03 13:35:20;;;;;;;;;;;;;;;22.78;48.36;100675.56;6094377;23;6779;-74
2023/10/03 13:37:47;;;;;;;;;;;;;;;22.69;47.83;100681.59;6091157;23;6838;-74
2023/10/03 13:40:13;;;;;;;;;;;;;;;22.59;47.69;100673.75;6160080;23;6783;-75
2023/10/03 13:42:40;;;;;;;;;;;;;;;22.55;47.92;100685.06;6107888;23;7156;-84
2023/10/03 13:45:06;;;;;;;;;;;;;;;22.57;47.51;100688.56;6045103;23;7400;-85
2023/10/03 13:47:32;;;;;;;;;;;;;;;22.60;48.25;100691.19;6044845;23;6959;-85
2023/10/03 13:50:00;;;;;;;;;;;;;;;22.74;47.82;100685.13;6068482;23;6916;-85
2023/10/03 13:52:26;;;;;;;;;;;;;;;22.94;48.04;100707.78;6068567;23;6753;-84